Annette Island, AK

11:52 AM AKDT on September 01, 2015 (GMT -0800)
Annette Island | | Change Station
CLOSE
Current Station
Airport
Location: Annette Island,
Elevation: 112 ft
Nearby Weather Stations

Elev 112 ft 55.04 °N, 131.57 °W | Updated 59 minutes ago

Light Rain
Light Rain
54 °F
Feels Like 54 °F
N
4
Wind Variable Wind from Variable

Today
High -- | Low -- °F
--% Chance of Precip.
Yesterday
High -- | Low -- °F
Precip. -- in
5:52 AM 7:38 PM
Waning Gibbous, 87% visible
Pressure 29.49 in
Visibility 10.0 miles
Clouds Few 2000 ft
Mostly Cloudy 4000 ft
Mostly Cloudy 20000 ft
Dew Point 48 °F
Humidity 80%
Rainfall 0.69 in
Snow Depth Not available.
UV 3 out of 12
Pollen Not available.
Air Quality Not available.
Flu Activity Not available.
METAR PANT 011853Z VRB03KT 10SM -RA FEW020 BKN040 BKN200 12/09 A2948 RMK RAB12E22B53 SLP985 P0000 T01220089 VIA AUTODIAL
Pressure 29.49 in
Visibility 10.0 miles
Clouds Few 2000 ft
Mostly Cloudy 4000 ft
Mostly Cloudy 20000 ft
Dew Point 48 °F
Humidity 80%
Rainfall 0.69 in
Snow Depth Not available.
UV 3 out of 12
Pollen Not available.
Air Quality Not available.
Flu Activity Not available.
METAR PANT 011853Z VRB03KT 10SM -RA FEW020 BKN040 BKN200 12/09 A2948 RMK RAB12E22B53 SLP985 P0000 T01220089 VIA AUTODIAL

10-Day Weather Forecast

×

Almanac

Astronomy

Sep. 01, 2015 Rise Set
Actual Time
Civil Twilight
Nautical Twilight
Astronomical Twilight
Moon
Length of Visible Light
Length of Day
Tomorrow will be .
, % of the Moon is Illuminated

Today's Extremes

State Highs State Lows

Community

WunderPhotos

Upload Photos

1,851,597 photos uploaded!

WunderBlogs® & News

Nearby

Air Quality

  Air Quality AQ Index Pollutant
Not available.

Snow Depth

Station Depth Elevation

Earthquake Activity

City Distance Mag. Time & Date
Minimum magnitude displayed is 2.5.

Coastal Water Temperatures

Place Temperature

Stations

Nearby Weather Stations

Station Location Temp. Windchill Dew Point Humidity Wind Precip. Elev Updated Type